Ingham Composite, Queensland

11:48 PM AEST on May 22, 2015 (GMT +1000)
Victoria Plantation | | Change Station
CLOSE
Current Station
Personal Weather Station
Location: Victoria Plantation, QUEENSLAND
Elevation: 39 ft
Nearby Weather Stations

Elev 39 ft 18.64 °S, 146.19 °E | Updated 2 seconds ago

Clear
Clear
61.1 °F
Feels Like 61.1 °F
N
1.0
Wind Variable Wind from SSW
Gusts 2.0 mph

Today
High -- | Low -- °F
--% Chance of Precip.
Yesterday
High -- | Low -- °F
Precip. -- in
6:36 AM 5:47 PM
Waxing Crescent, 21% visible
Pressure 30.06 in
Visibility 6.2 miles
Clouds
Dew Point 58 °F
Humidity 90%
Rainfall in
Snow Depth Not available.
UV Not available.
Pollen Not available.
Air Quality Not available.
Flu Activity Not available.
METAR YBTL 221330Z AUTO 20008KT 9999 // NCD 22/01 Q1018

More Conditions Fewer Conditions

Pressure 30.06 in
Visibility 6.2 miles
Clouds
Dew Point 58 °F
Humidity 90%
Rainfall in
Snow Depth Not available.
UV Not available.
Pollen Not available.
Air Quality Not available.
Flu Activity Not available.
METAR YBTL 221330Z AUTO 20008KT 9999 // NCD 22/01 Q1018

More Conditions Fewer Conditions

10-Day Weather Forecast

Almanac

Astronomy

May. 22, 2015 Rise Set
Actual Time
Civil Twilight
Nautical Twilight
Astronomical Twilight
Moon
Length of Visible Light
Length of Day
Tomorrow will be .
, % of the Moon is Illuminated

Today's Extremes

Country Highs Country Lows

Community

WunderPhotos

Upload Photos

1,823,217 photos uploaded!

WunderBlogs® & News

Nearby

Air Quality

  Air Quality AQ Index Pollutant
Not available.

Snow Depth

Station Depth Elevation

Earthquake Activity

City Distance Mag. Time & Date
Minimum magnitude displayed is 2.5.

Coastal Water Temperatures

Place Temperature

Stations

Nearby Weather Stations

Station Location Temp. Windchill Dew Point Humidity Wind Precip. Elev Updated Type